Time,TemperatureF,DewpointF,PressureIn,WindDirection,WindDirectionDegrees,WindSpeedMPH,WindSpeedGustMPH,Humidity,HourlyPrecipIn,Conditions,Clouds,dailyrainin,SoftwareType,DateUTC
2013-02-20 00:01:00,32.0,20.0,-100.00,East,90,4.0,6.0,62,-99.99,,,-99.99,,2013-02-20 06:01:00,
2013-02-20 00:11:00,32.0,20.0,-100.00,East,90,5.0,7.0,61,-99.99,,,-99.99,,2013-02-20 06:11:00,
2013-02-20 00:21:00,32.0,20.0,-100.00,NNE,22,5.0,8.0,62,-99.99,,,-99.99,,2013-02-20 06:21:00,
2013-02-20 00:31:00,31.0,20.0,-100.00,East,90,6.0,8.0,64,-99.99,,,-99.99,,2013-02-20 06:31:00,
2013-02-20 00:42:00,31.0,20.0,-100.00,NNE,22,5.0,7.0,64,-99.99,,,-99.99,,2013-02-20 06:42:00,
2013-02-20 00:51:00,31.0,20.0,-100.00,NNE,22,6.0,11.0,63,-99.99,,,-99.99,,2013-02-20 06:51:00,
2013-02-20 01:01:00,32.0,18.0,-100.00,East,90,8.0,12.0,57,-99.99,,,-99.99,,2013-02-20 07:01:00,
2013-02-20 01:11:00,31.0,19.0,-100.00,East,90,5.0,8.0,61,-99.99,,,-99.99,,2013-02-20 07:11:00,
2013-02-20 01:21:00,31.0,20.0,-100.00,East,90,5.0,8.0,63,-99.99,,,-99.99,,2013-02-20 07:21:00,
2013-02-20 01:31:00,31.0,19.0,-100.00,NNE,22,6.0,9.0,62,-99.99,,,-99.99,,2013-02-20 07:31:00,
2013-02-20 01:41:00,31.0,19.0,-100.00,East,90,6.0,8.0,62,-99.99,,,-99.99,,2013-02-20 07:41:00,
2013-02-20 01:51:00,30.0,19.0,-100.00,East,90,5.0,10.0,63,-99.99,,,-99.99,,2013-02-20 07:51:00,
2013-02-20 02:05:00,30.0,18.0,-100.00,East,90,5.0,7.0,61,-99.99,,,-99.99,,2013-02-20 08:05:00,
2013-02-20 02:11:00,30.0,19.0,-100.00,East,90,4.0,6.0,63,-99.99,,,-99.99,,2013-02-20 08:11:00,
2013-02-20 02:21:00,29.0,19.0,-100.00,NNE,22,5.0,8.0,65,-99.99,,,-99.99,,2013-02-20 08:21:00,
2013-02-20 02:31:00,29.0,19.0,-100.00,NNE,22,5.0,8.0,66,-99.99,,,-99.99,,2013-02-20 08:31:00,
2013-02-20 02:41:00,30.0,19.0,-100.00,NNE,22,5.0,8.0,65,-99.99,,,-99.99,,2013-02-20 08:41:00,
2013-02-20 02:52:00,29.0,20.0,-100.00,NNE,22,4.0,6.0,67,-99.99,,,-99.99,,2013-02-20 08:52:00,
2013-02-20 03:01:00,29.0,19.0,-100.00,NNE,22,5.0,9.0,64,-99.99,,,-99.99,,2013-02-20 09:01:00,
2013-02-20 03:11:00,29.0,17.0,-100.00,NNE,22,4.0,6.0,61,-99.99,,,-99.99,,2013-02-20 09:11:00,
2013-02-20 03:21:00,29.0,18.0,-100.00,East,90,3.0,6.0,64,-99.99,,,-99.99,,2013-02-20 09:21:00,
2013-02-20 03:31:00,29.0,18.0,-100.00,NNE,22,4.0,7.0,63,-99.99,,,-99.99,,2013-02-20 09:31:00,
2013-02-20 03:41:00,29.0,18.0,-100.00,East,90,4.0,6.0,63,-99.99,,,-99.99,,2013-02-20 09:41:00,
2013-02-20 03:51:00,28.0,18.0,-100.00,East,90,3.0,5.0,66,-99.99,,,-99.99,,2013-02-20 09:51:00,
2013-02-20 04:01:00,29.0,16.0,-100.00,East,90,6.0,11.0,59,-99.99,,,-99.99,,2013-02-20 10:01:00,
2013-02-20 04:12:00,29.0,15.0,-100.00,East,90,7.0,11.0,57,-99.99,,,-99.99,,2013-02-20 10:12:00,
2013-02-20 04:21:00,29.0,16.0,-100.00,East,90,7.0,12.0,58,-99.99,,,-99.99,,2013-02-20 10:21:00,
2013-02-20 04:31:00,29.0,17.0,-100.00,NNE,22,6.0,8.0,62,-99.99,,,-99.99,,2013-02-20 10:31:00,
2013-02-20 04:41:00,29.0,20.0,-100.00,NNE,22,4.0,7.0,69,-99.99,,,-99.99,,2013-02-20 10:41:00,
2013-02-20 04:51:00,28.0,18.0,-100.00,NNE,22,6.0,11.0,65,-99.99,,,-99.99,,2013-02-20 10:51:00,
2013-02-20 05:02:00,28.0,17.0,-100.00,NNE,22,5.0,8.0,63,-99.99,,,-99.99,,2013-02-20 11:02:00,
2013-02-20 05:11:00,28.0,16.0,-100.00,NNE,22,7.0,14.0,60,-99.99,,,-99.99,,2013-02-20 11:11:00,
2013-02-20 05:21:00,28.0,12.0,-100.00,East,90,8.0,14.0,51,-99.99,,,-99.99,,2013-02-20 11:21:00,
2013-02-20 05:32:00,27.0,14.0,-100.00,NNE,22,7.0,12.0,56,-99.99,,,-99.99,,2013-02-20 11:32:00,
2013-02-20 05:41:00,27.0,15.0,-100.00,NNE,22,7.0,9.0,59,-99.99,,,-99.99,,2013-02-20 11:41:00,
2013-02-20 05:52:00,28.0,16.0,-100.00,NNE,22,6.0,10.0,60,-99.99,,,-99.99,,2013-02-20 11:52:00,
2013-02-20 06:01:00,28.0,16.0,-100.00,NNE,22,6.0,9.0,60,-99.99,,,-99.99,,2013-02-20 12:01:00,
2013-02-20 06:12:00,28.0,15.0,-100.00,NNE,22,6.0,10.0,59,-99.99,,,-99.99,,2013-02-20 12:12:00,
2013-02-20 06:21:00,28.0,15.0,-100.00,NNE,22,6.0,8.0,58,-99.99,,,-99.99,,2013-02-20 12:21:00,
2013-02-20 06:31:00,28.0,15.0,-100.00,NNE,22,5.0,8.0,58,-99.99,,,-99.99,,2013-02-20 12:31:00,
2013-02-20 06:42:00,28.0,15.0,-100.00,NNE,22,6.0,10.0,59,-99.99,,,-99.99,,2013-02-20 12:42:00,
2013-02-20 06:52:00,28.0,16.0,-100.00,NE,45,4.0,7.0,60,-99.99,,,-99.99,,2013-02-20 12:52:00,
2013-02-20 07:01:00,28.0,14.0,-100.00,NE,45,4.0,7.0,56,-99.99,,,-99.99,,2013-02-20 13:01:00,
2013-02-20 07:11:00,28.0,14.0,-100.00,NNE,22,5.0,9.0,56,-99.99,,,-99.99,,2013-02-20 13:11:00,
2013-02-20 07:22:00,28.0,13.0,-100.00,NNE,22,6.0,13.0,53,-99.99,,,-99.99,,2013-02-20 13:22:00,
2013-02-20 07:31:00,28.0,13.0,-100.00,NNE,22,5.0,9.0,55,-99.99,,,-99.99,,2013-02-20 13:31:00,
2013-02-20 07:42:00,28.0,13.0,-100.00,NNE,22,5.0,9.0,52,-99.99,,,-99.99,,2013-02-20 13:42:00,
2013-02-20 07:51:00,28.0,12.0,-100.00,NNE,22,5.0,8.0,52,-99.99,,,-99.99,,2013-02-20 13:51:00,
2013-02-20 08:01:00,28.0,12.0,-100.00,NNE,22,6.0,8.0,50,-99.99,,,-99.99,,2013-02-20 14:01:00,
2013-02-20 08:11:00,28.0,12.0,-100.00,NNE,22,6.0,11.0,50,-99.99,,,-99.99,,2013-02-20 14:11:00,
2013-02-20 08:21:00,28.0,12.0,-100.00,East,90,6.0,8.0,49,-99.99,,,-99.99,,2013-02-20 14:21:00,
2013-02-20 08:32:00,29.0,12.0,-100.00,NNE,22,5.0,8.0,51,-99.99,,,-99.99,,2013-02-20 14:32:00,
2013-02-20 08:42:00,29.0,13.0,-100.00,East,90,5.0,9.0,51,-99.99,,,-99.99,,2013-02-20 14:42:00,
2013-02-20 08:52:00,29.0,12.0,-100.00,East,90,6.0,10.0,49,-99.99,,,-99.99,,2013-02-20 14:52:00,
2013-02-20 09:01:00,29.0,13.0,-100.00,East,90,5.0,9.0,51,-99.99,,,-99.99,,2013-02-20 15:01:00,
2013-02-20 09:11:00,29.0,13.0,-100.00,East,90,5.0,9.0,51,-99.99,,,-99.99,,2013-02-20 15:11:00,
2013-02-20 09:22:00,29.0,13.0,-100.00,East,90,5.0,8.0,50,-99.99,,,-99.99,,2013-02-20 15:22:00,
2013-02-20 09:32:00,29.0,13.0,-100.00,East,90,5.0,8.0,51,-99.99,,,-99.99,,2013-02-20 15:32:00,
2013-02-20 09:41:00,29.0,13.0,-100.00,NNE,22,6.0,10.0,52,-99.99,,,-99.99,,2013-02-20 15:41:00,
2013-02-20 09:51:00,29.0,13.0,-100.00,NNE,22,5.0,8.0,51,-99.99,,,-99.99,,2013-02-20 15:51:00,
2013-02-20 10:01:00,29.0,14.0,-100.00,East,90,6.0,9.0,53,-99.99,,,-99.99,,2013-02-20 16:01:00,
2013-02-20 10:11:00,29.0,14.0,-100.00,NNE,22,5.0,9.0,54,-99.99,,,-99.99,,2013-02-20 16:11:00,
2013-02-20 10:21:00,29.0,15.0,-100.00,NNE,22,6.0,13.0,54,-99.99,,,-99.99,,2013-02-20 16:21:00,
2013-02-20 10:32:00,29.0,15.0,-100.00,NNE,22,6.0,9.0,55,-99.99,,,-99.99,,2013-02-20 16:32:00,
2013-02-20 10:41:00,29.0,16.0,-100.00,NNE,22,4.0,8.0,56,-99.99,,,-99.99,,2013-02-20 16:41:00,
2013-02-20 10:51:00,29.0,15.0,-100.00,NNE,22,6.0,8.0,55,-99.99,,,-99.99,,2013-02-20 16:51:00,
2013-02-20 11:01:00,30.0,16.0,-100.00,NNE,22,6.0,11.0,56,-99.99,,,-99.99,,2013-02-20 17:01:00,
2013-02-20 11:11:00,29.0,16.0,-100.00,NE,45,5.0,8.0,56,-99.99,,,-99.99,,2013-02-20 17:11:00,
2013-02-20 11:21:00,30.0,16.0,-100.00,NNE,22,5.0,9.0,57,-99.99,,,-99.99,,2013-02-20 17:21:00,
2013-02-20 11:32:00,29.0,16.0,-100.00,NE,45,5.0,8.0,57,-99.99,,,-99.99,,2013-02-20 17:32:00,
2013-02-20 11:41:00,29.0,16.0,-100.00,NNE,22,5.0,8.0,56,-99.99,,,-99.99,,2013-02-20 17:41:00,
2013-02-20 11:52:00,30.0,16.0,-100.00,NNE,22,4.0,7.0,57,-99.99,,,-99.99,,2013-02-20 17:52:00,
2013-02-20 12:02:00,30.0,16.0,-100.00,NNE,22,5.0,8.0,55,-99.99,,,-99.99,,2013-02-20 18:02:00,
2013-02-20 12:11:00,30.0,16.0,-100.00,NE,45,5.0,7.0,56,-99.99,,,-99.99,,2013-02-20 18:11:00,
2013-02-20 12:21:00,30.0,16.0,-100.00,NNE,22,5.0,8.0,55,-99.99,,,-99.99,,2013-02-20 18:21:00,
2013-02-20 12:31:00,30.0,15.0,-100.00,NE,45,5.0,9.0,53,-99.99,,,-99.99,,2013-02-20 18:31:00,
2013-02-20 12:42:00,31.0,16.0,-100.00,NNE,22,5.0,9.0,54,-99.99,,,-99.99,,2013-02-20 18:42:00,
2013-02-20 12:51:00,31.0,17.0,-100.00,NNE,22,5.0,8.0,56,-99.99,,,-99.99,,2013-02-20 18:51:00,
2013-02-20 13:01:00,30.0,16.0,-100.00,NNE,22,5.0,9.0,55,-99.99,,,-99.99,,2013-02-20 19:01:00,
2013-02-20 13:11:00,31.0,16.0,-100.00,NNE,22,6.0,9.0,54,-99.99,,,-99.99,,2013-02-20 19:11:00,
2013-02-20 13:21:00,31.0,17.0,-100.00,NNE,22,5.0,8.0,56,-99.99,,,-99.99,,2013-02-20 19:21:00,
2013-02-20 13:31:00,31.0,17.0,-100.00,NNE,22,7.0,12.0,55,-99.99,,,-99.99,,2013-02-20 19:31:00,
2013-02-20 13:41:00,31.0,17.0,-100.00,NNE,22,6.0,12.0,56,-99.99,,,-99.99,,2013-02-20 19:41:00,
2013-02-20 13:51:00,31.0,17.0,-100.00,NNE,22,5.0,11.0,57,-99.99,,,-99.99,,2013-02-20 19:51:00,
2013-02-20 14:01:00,31.0,16.0,-100.00,NE,45,6.0,9.0,55,-99.99,,,-99.99,,2013-02-20 20:01:00,
2013-02-20 14:11:00,31.0,17.0,-100.00,NE,45,6.0,13.0,57,-99.99,,,-99.99,,2013-02-20 20:11:00,
2013-02-20 14:21:00,31.0,17.0,-100.00,NE,45,8.0,12.0,56,-99.99,,,-99.99,,2013-02-20 20:21:00,
2013-02-20 14:31:00,31.0,17.0,-100.00,NE,45,7.0,12.0,55,-99.99,,,-99.99,,2013-02-20 20:31:00,
2013-02-20 14:41:00,32.0,18.0,-100.00,NE,45,5.0,10.0,56,-99.99,,,-99.99,,2013-02-20 20:41:00,
2013-02-20 14:51:00,32.0,18.0,-100.00,NE,45,6.0,9.0,57,-99.99,,,-99.99,,2013-02-20 20:51:00,
2013-02-20 15:01:00,31.0,18.0,-100.00,NE,45,5.0,9.0,58,-99.99,,,-99.99,,2013-02-20 21:01:00,
2013-02-20 15:11:00,32.0,18.0,-100.00,ENE,67,5.0,8.0,58,-99.99,,,-99.99,,2013-02-20 21:11:00,
2013-02-20 15:21:00,32.0,17.0,-100.00,NE,45,7.0,11.0,55,-99.99,,,-99.99,,2013-02-20 21:21:00,
2013-02-20 15:31:00,32.0,17.0,-100.00,NE,45,7.0,14.0,54,-99.99,,,-99.99,,2013-02-20 21:31:00,
2013-02-20 15:41:00,32.0,18.0,-100.00,NE,45,7.0,12.0,55,-99.99,,,-99.99,,2013-02-20 21:41:00,
2013-02-20 15:51:00,32.0,18.0,-100.00,NE,45,6.0,11.0,55,-99.99,,,-99.99,,2013-02-20 21:51:00,
2013-02-20 16:01:00,32.0,18.0,-100.00,NE,45,6.0,9.0,54,-99.99,,,-99.99,,2013-02-20 22:01:00,
2013-02-20 16:11:00,32.0,18.0,-100.00,NE,45,6.0,12.0,55,-99.99,,,-99.99,,2013-02-20 22:11:00,
2013-02-20 16:21:00,32.0,18.0,-100.00,NE,45,7.0,11.0,56,-99.99,,,-99.99,,2013-02-20 22:21:00,
2013-02-20 16:31:00,32.0,19.0,-100.00,NE,45,5.0,8.0,57,-99.99,,,-99.99,,2013-02-20 22:31:00,
2013-02-20 16:42:00,32.0,18.0,-100.00,NE,45,6.0,11.0,56,-99.99,,,-99.99,,2013-02-20 22:42:00,
2013-02-20 16:51:00,32.0,19.0,-100.00,NE,45,7.0,11.0,57,-99.99,,,-99.99,,2013-02-20 22:51:00,
2013-02-20 17:01:00,32.0,19.0,-100.00,NE,45,5.0,9.0,59,-99.99,,,-99.99,,2013-02-20 23:01:00,
2013-02-20 17:12:00,32.0,19.0,-100.00,NE,45,6.0,11.0,59,-99.99,,,-99.99,,2013-02-20 23:12:00,
2013-02-20 17:22:00,32.0,20.0,-100.00,NE,45,2.0,6.0,61,-99.99,,,-99.99,,2013-02-20 23:22:00,
2013-02-20 17:31:00,32.0,21.0,-100.00,NNE,22,3.0,4.0,63,-99.99,,,-99.99,,2013-02-20 23:31:00,
2013-02-20 17:42:00,32.0,21.0,-100.00,NE,45,4.0,6.0,64,-99.99,,,-99.99,,2013-02-20 23:42:00,
2013-02-20 17:52:00,32.0,21.0,-100.00,NE,45,3.0,6.0,64,-99.99,,,-99.99,,2013-02-20 23:52:00,
2013-02-20 18:02:00,32.0,21.0,-100.00,NE,45,5.0,7.0,63,-99.99,,,-99.99,,2013-02-21 00:02:00,
2013-02-20 18:11:00,32.0,21.0,-100.00,NNE,22,3.0,6.0,63,-99.99,,,-99.99,,2013-02-21 00:11:00,
2013-02-20 18:21:00,32.0,21.0,-100.00,NNE,22,4.0,7.0,65,-99.99,,,-99.99,,2013-02-21 00:21:00,
2013-02-20 18:32:00,32.0,21.0,-100.00,NNE,22,5.0,7.0,65,-99.99,,,-99.99,,2013-02-21 00:32:00,
2013-02-20 18:42:00,32.0,21.0,-100.00,NNE,22,5.0,7.0,64,-99.99,,,-99.99,,2013-02-21 00:42:00,
2013-02-20 18:52:00,32.0,21.0,-100.00,NNE,22,3.0,5.0,65,-99.99,,,-99.99,,2013-02-21 00:52:00,
2013-02-20 19:01:00,31.0,22.0,-100.00,NE,45,4.0,7.0,66,-99.99,,,-99.99,,2013-02-21 01:01:00,
2013-02-20 19:11:00,31.0,22.0,-100.00,NNE,22,3.0,5.0,69,-99.99,,,-99.99,,2013-02-21 01:11:00,
2013-02-20 19:21:00,31.0,22.0,-100.00,NNE,22,4.0,7.0,69,-99.99,,,-99.99,,2013-02-21 01:21:00,
2013-02-20 19:32:00,31.0,23.0,-100.00,NE,45,4.0,8.0,71,-99.99,,,-99.99,,2013-02-21 01:32:00,
2013-02-20 19:41:00,31.0,23.0,-100.00,NNE,22,3.0,7.0,72,-99.99,,,-99.99,,2013-02-21 01:41:00,
2013-02-20 19:51:00,31.0,23.0,-100.00,NE,45,3.0,4.0,73,-99.99,,,-99.99,,2013-02-21 01:51:00,
2013-02-20 20:01:00,31.0,23.0,-100.00,NE,45,3.0,4.0,70,-99.99,,,-99.99,,2013-02-21 02:01:00,
2013-02-20 20:11:00,31.0,22.0,-100.00,NNE,22,3.0,5.0,70,-99.99,,,-99.99,,2013-02-21 02:11:00,
2013-02-20 20:21:00,31.0,22.0,-100.00,NNE,22,3.0,7.0,69,-99.99,,,-99.99,,2013-02-21 02:21:00,
2013-02-20 20:32:00,31.0,23.0,-100.00,NE,45,3.0,5.0,74,-99.99,,,-99.99,,2013-02-21 02:32:00,
2013-02-20 20:42:00,31.0,23.0,-100.00,NE,45,3.0,5.0,74,-99.99,,,-99.99,,2013-02-21 02:42:00,
2013-02-20 20:51:00,31.0,23.0,-100.00,NE,45,3.0,5.0,74,-99.99,,,-99.99,,2013-02-21 02:51:00,
2013-02-20 21:01:00,32.0,22.0,-100.00,NE,45,4.0,7.0,65,-99.99,,,-99.99,,2013-02-21 03:01:00,
2013-02-20 21:12:00,32.0,21.0,-100.00,ENE,67,4.0,8.0,64,-99.99,,,-99.99,,2013-02-21 03:12:00,
2013-02-20 21:21:00,32.0,21.0,-100.00,NE,45,5.0,7.0,65,-99.99,,,-99.99,,2013-02-21 03:21:00,
2013-02-20 21:32:00,32.0,22.0,-100.00,ENE,67,5.0,11.0,65,-99.99,,,-99.99,,2013-02-21 03:32:00,
2013-02-20 21:41:00,32.0,21.0,-100.00,NE,45,5.0,9.0,65,-99.99,,,-99.99,,2013-02-21 03:41:00,
2013-02-20 21:51:00,32.0,21.0,-100.00,ENE,67,5.0,9.0,65,-99.99,,,-99.99,,2013-02-21 03:51:00,
2013-02-20 22:01:00,32.0,20.0,-100.00,NE,45,5.0,10.0,61,-99.99,,,-99.99,,2013-02-21 04:01:00,
2013-02-20 22:11:00,32.0,20.0,-100.00,ENE,67,5.0,11.0,61,-99.99,,,-99.99,,2013-02-21 04:11:00,
2013-02-20 22:21:00,32.0,20.0,-100.00,NE,45,6.0,10.0,63,-99.99,,,-99.99,,2013-02-21 04:21:00,
2013-02-20 22:32:00,32.0,21.0,-100.00,NE,45,4.0,8.0,64,-99.99,,,-99.99,,2013-02-21 04:32:00,
2013-02-20 22:41:00,32.0,20.0,-100.00,NE,45,7.0,12.0,63,-99.99,,,-99.99,,2013-02-21 04:41:00,
2013-02-20 22:51:00,32.0,21.0,-100.00,NE,45,6.0,9.0,64,-99.99,,,-99.99,,2013-02-21 04:51:00,
2013-02-20 23:02:00,31.0,20.0,-100.00,NE,45,7.0,12.0,63,-99.99,,,-99.99,,2013-02-21 05:02:00,
2013-02-20 23:12:00,32.0,20.0,-100.00,ENE,67,5.0,10.0,62,-99.99,,,-99.99,,2013-02-21 05:12:00,
2013-02-20 23:22:00,31.0,22.0,-100.00,NE,45,5.0,8.0,66,-99.99,,,-99.99,,2013-02-21 05:22:00,
2013-02-20 23:33:00,31.0,22.0,-100.00,NE,45,6.0,10.0,67,-99.99,,,-99.99,,2013-02-21 05:33:00,
2013-02-20 23:43:00,31.0,22.0,-100.00,NE,45,7.0,11.0,68,-99.99,,,-99.99,,2013-02-21 05:43:00,
2013-02-20 23:52:00,31.0,22.0,-100.00,NE,45,6.0,9.0,68,-99.99,,,-99.99,,2013-02-21 05:52:00,